MMMZ/MZT METAR and TAF weather

Enter ICAO airport designator
Station Type Date Time Source
MMMZ METAR 2020/03/31 12:42 UTC NOAA

MMMZ 311242Z 00000KT 12SM SCT240 15/15 A2988 RMK 8/002


Station Type Date Time Source
MMMZ Decoded METAR 2020/03/31 12:42 UTC NOAA

Mazatlan / G. Buelna, Mexico (MMMZ) 23-10N 106-16W
Mar 31, 2020 - 08:42 AM EDT / 2020.03.31 1242 UTC
Wind: Calm:0
Visibility: 12 mile(s):0
Sky conditions: partly cloudy
Temperature: 59 F (15 C)
Dew Point: 59 F (15 C)
Relative Humidity: 100%
Pressure (altimeter): 29.88 in. Hg (1011 hPa)
ob: MMMZ 311242Z 00000KT 12SM SCT240 15/15 A2988 RMK 8/002
cycle: 12

Station Type Date Time Source
MMMZ TAF 2020/03/31 12:59 UTC NOAA

TAF MMMZ 311055Z 3112/0118 04005KT P6SM SKC TX29/3122Z TN15/3112Z
FM311800 26010KT P6SM BKN250
FM010600 34005KT P6SM SCT250
FM011700 28010KT P6SM BKN250

Example: see airport list